Rodeio, Brazil
Current Conditions -  °F | °C
As of 10:00 AM on Monday 22 Dec 2014 (Local Time) from SBNF Reporting Station
Light Rain Light Rain  
Wind Chill: 75°   Ceiling: 2000
Heat Index: 75°   Visibility: 5mi
Dew Point: 73°   Wind: 15mph
Humidity: 94%   Direction: 160°SSE
Pressure: 29.8"   Gusts: NA
Location:  26.92°S, 49.37°W
Report Text: SBNF 221200Z 16013KT 8000 -RA SCT008 BKN020 24/23 Q1009
Loading
Personal Weather Stations






























Interactive Weather Map New forecast layout! Learn more

10-Day Weather Forecast

Advertisements
Track Severe Weather on mobile